createdAt,value
2022-09-18T00:01:23.006Z,11.45
2022-09-18T00:03:49.860Z,11.47
2022-09-18T00:06:19.693Z,11.52
2022-09-18T00:08:46.742Z,11.50
2022-09-18T00:11:15.264Z,11.52
2022-09-18T00:13:43.241Z,11.48
2022-09-18T00:16:12.400Z,11.44
2022-09-18T00:18:39.327Z,11.43
2022-09-18T00:21:10.031Z,11.44
2022-09-18T00:23:37.504Z,11.44
2022-09-18T00:26:05.380Z,11.43
2022-09-18T00:28:32.987Z,11.46
2022-09-18T00:31:13.280Z,11.37
2022-09-18T00:33:40.350Z,11.37
2022-09-18T00:36:10.025Z,11.29
2022-09-18T00:38:36.610Z,11.27
2022-09-18T00:41:08.136Z,11.35
2022-09-18T00:43:36.393Z,11.40
2022-09-18T00:46:13.280Z,11.44
2022-09-18T00:49:13.898Z,11.32
2022-09-18T00:51:42.002Z,11.21
2022-09-18T00:54:29.717Z,11.17
2022-09-18T00:57:01.911Z,11.22
2022-09-18T00:59:31.074Z,11.26
2022-09-18T01:01:58.352Z,11.21
2022-09-18T01:04:25.472Z,11.11
2022-09-18T01:06:58.081Z,11.11
2022-09-18T01:10:01.970Z,11.14
2022-09-18T01:12:56.206Z,11.18
2022-09-18T01:15:34.997Z,11.17
2022-09-18T01:18:35.495Z,11.15
2022-09-18T01:21:14.163Z,11.12
2022-09-18T01:24:25.428Z,11.10
2022-09-18T01:27:19.775Z,11.10
2022-09-18T01:29:59.490Z,11.12
2022-09-18T01:32:31.864Z,11.12
2022-09-18T01:35:39.380Z,11.08
2022-09-18T01:38:09.963Z,11.11
2022-09-18T01:40:42.763Z,11.13
2022-09-18T01:43:14.800Z,11.16
2022-09-18T01:45:44.951Z,11.12
2022-09-18T01:48:17.723Z,11.06
2022-09-18T01:50:52.143Z,11.05
2022-09-18T01:53:26.443Z,10.97
2022-09-18T01:56:25.809Z,10.94
2022-09-18T01:58:56.917Z,11.00
2022-09-18T02:01:29.229Z,11.03
2022-09-18T02:04:02.039Z,11.05
2022-09-18T02:06:51.863Z,10.90
2022-09-18T02:09:18.517Z,10.87
2022-09-18T02:11:52.584Z,10.83
2022-09-18T02:14:28.655Z,10.84
2022-09-18T02:17:00.813Z,10.75
2022-09-18T02:19:39.693Z,10.67
2022-09-18T02:22:10.904Z,10.68
2022-09-18T02:24:40.136Z,10.69
2022-09-18T02:27:08.991Z,10.65
2022-09-18T02:29:36.422Z,10.71
2022-09-18T02:32:03.729Z,10.75
2022-09-18T02:34:31.515Z,10.79
2022-09-18T02:36:58.014Z,10.76
2022-09-18T02:39:54.164Z,10.77
2022-09-18T02:42:43.808Z,10.80
2022-09-18T02:45:40.666Z,10.74
2022-09-18T02:48:35.165Z,10.69
2022-09-18T02:51:31.147Z,10.71
2022-09-18T02:54:03.822Z,10.68
2022-09-18T02:56:49.841Z,10.64
2022-09-18T02:59:35.970Z,10.60
2022-09-18T03:02:03.582Z,10.59
2022-09-18T03:04:30.268Z,10.56
2022-09-18T03:06:56.818Z,10.58
2022-09-18T03:09:24.180Z,10.54
2022-09-18T03:11:50.962Z,10.46
2022-09-18T03:14:17.495Z,10.39
2022-09-18T03:16:44.069Z,10.25
2022-09-18T03:19:11.837Z,10.18
2022-09-18T03:21:38.451Z,10.14
2022-09-18T03:24:05.395Z,10.15
2022-09-18T03:26:32.201Z,10.15
2022-09-18T03:28:59.070Z,10.16
2022-09-18T03:31:25.693Z,10.05
2022-09-18T03:33:52.308Z,9.99
2022-09-18T03:36:18.839Z,9.93
2022-09-18T03:38:45.401Z,9.88
2022-09-18T03:41:11.976Z,9.90
2022-09-18T03:43:38.495Z,9.88
2022-09-18T03:46:05.191Z,9.94
2022-09-18T03:48:31.778Z,9.96
2022-09-18T03:50:58.366Z,9.95
2022-09-18T03:53:24.954Z,10.00
2022-09-18T03:55:51.992Z,9.85
2022-09-18T03:58:18.833Z,9.87
2022-09-18T04:00:45.491Z,9.82
2022-09-18T04:03:12.175Z,9.72
2022-09-18T04:05:38.787Z,9.67
2022-09-18T04:08:05.498Z,9.56
2022-09-18T04:10:33.100Z,9.55
2022-09-18T04:12:59.637Z,9.61
2022-09-18T04:15:27.307Z,9.60
2022-09-18T04:17:53.878Z,9.55
2022-09-18T04:20:20.401Z,9.57
2022-09-18T04:22:46.962Z,9.62
2022-09-18T04:25:13.532Z,9.64
2022-09-18T04:27:40.041Z,9.61
2022-09-18T04:30:07.119Z,9.66
2022-09-18T04:32:33.839Z,9.64
2022-09-18T04:35:00.425Z,9.62
2022-09-18T04:37:26.938Z,9.60
2022-09-18T04:39:53.537Z,9.64
2022-09-18T04:42:20.094Z,9.57
2022-09-18T04:44:47.354Z,9.56
2022-09-18T04:47:14.079Z,9.60
2022-09-18T04:49:40.596Z,9.61
2022-09-18T04:52:07.224Z,9.43
2022-09-18T04:54:33.745Z,9.41
2022-09-18T04:57:00.284Z,9.27
2022-09-18T04:59:26.798Z,9.27
2022-09-18T05:01:53.413Z,9.13
2022-09-18T05:04:19.988Z,9.04
2022-09-18T05:06:46.526Z,9.08
2022-09-18T05:09:13.079Z,9.15
2022-09-18T05:11:39.708Z,9.20
2022-09-18T05:14:06.265Z,9.21
2022-09-18T05:16:32.841Z,9.25
2022-09-18T05:18:59.443Z,9.21
2022-09-18T05:21:26.046Z,9.19
2022-09-18T05:23:52.589Z,9.21
2022-09-18T05:26:19.099Z,9.22
2022-09-18T05:28:49.849Z,9.20
2022-09-18T05:31:16.946Z,9.22
2022-09-18T05:33:43.795Z,9.23
2022-09-18T05:36:10.353Z,9.20
2022-09-18T05:38:36.888Z,9.12
2022-09-18T05:41:04.020Z,9.13
2022-09-18T05:43:30.926Z,9.13
2022-09-18T05:45:57.943Z,9.14
2022-09-18T05:48:24.597Z,9.12
2022-09-18T05:50:52.132Z,9.07
2022-09-18T05:53:21.409Z,9.05
2022-09-18T05:55:48.108Z,9.10
2022-09-18T05:58:17.049Z,9.12
2022-09-18T06:00:47.401Z,9.18
2022-09-18T06:03:16.104Z,9.20
2022-09-18T06:05:43.577Z,9.19
2022-09-18T06:08:12.418Z,9.20
2022-09-18T06:10:40.819Z,9.14
2022-09-18T06:13:10.150Z,9.13
2022-09-18T06:15:37.159Z,9.05
2022-09-18T06:18:05.468Z,9.03
2022-09-18T06:20:32.109Z,9.08
2022-09-18T06:23:00.603Z,9.12
2022-09-18T06:25:28.358Z,9.07
2022-09-18T06:28:00.085Z,9.11
2022-09-18T06:30:28.760Z,9.14
2022-09-18T06:32:56.888Z,9.21
2022-09-18T06:35:23.874Z,9.21
2022-09-18T06:37:50.382Z,9.23
2022-09-18T06:40:16.991Z,9.23
2022-09-18T06:42:46.074Z,9.24
2022-09-18T06:45:12.678Z,9.25
2022-09-18T06:47:39.208Z,9.26
2022-09-18T06:50:08.127Z,9.31
2022-09-18T06:52:34.748Z,9.26
2022-09-18T06:55:01.259Z,9.23
2022-09-18T06:57:27.928Z,9.24
2022-09-18T06:59:54.587Z,9.23
2022-09-18T07:02:21.161Z,9.26
2022-09-18T07:04:49.362Z,9.28
2022-09-18T07:07:15.897Z,9.26
2022-09-18T07:09:42.531Z,9.28
2022-09-18T07:12:09.095Z,9.31
2022-09-18T07:14:35.684Z,9.31
2022-09-18T07:17:02.346Z,9.32
2022-09-18T07:19:28.881Z,9.33
2022-09-18T07:21:55.387Z,9.37
2022-09-18T07:24:21.972Z,9.33
2022-09-18T07:26:48.526Z,9.31
2022-09-18T07:29:15.099Z,9.38
2022-09-18T07:31:41.703Z,9.41
2022-09-18T07:34:09.317Z,9.48
2022-09-18T07:36:35.904Z,9.54
2022-09-18T07:39:02.489Z,9.54
2022-09-18T07:41:29.084Z,9.56
2022-09-18T07:43:55.697Z,9.55
2022-09-18T07:46:22.433Z,9.60
2022-09-18T07:48:49.110Z,9.62
2022-09-18T07:51:15.714Z,9.66
2022-09-18T07:53:42.258Z,9.72
2022-09-18T07:56:12.314Z,9.75
2022-09-18T07:58:39.265Z,9.77
2022-09-18T08:01:06.124Z,9.81
2022-09-18T08:03:34.999Z,9.88
2022-09-18T08:06:03.812Z,9.91
2022-09-18T08:08:30.513Z,9.92
2022-09-18T08:10:57.068Z,9.97
2022-09-18T08:13:23.605Z,9.98
2022-09-18T08:15:50.531Z,10.04
2022-09-18T08:18:17.769Z,10.06
2022-09-18T08:20:45.012Z,10.04
2022-09-18T08:23:12.903Z,10.03
2022-09-18T08:25:40.120Z,10.07
2022-09-18T08:28:08.004Z,10.16
2022-09-18T08:30:36.094Z,10.22
2022-09-18T08:33:05.768Z,10.30
2022-09-18T08:35:32.560Z,10.33
2022-09-18T08:38:00.141Z,10.37
2022-09-18T08:40:47.267Z,10.33
2022-09-18T08:43:22.021Z,10.39
2022-09-18T08:46:04.254Z,10.46
2022-09-18T08:48:39.671Z,10.55
2022-09-18T08:51:31.127Z,10.57
2022-09-18T08:54:20.363Z,10.62
2022-09-18T08:56:48.272Z,10.67
2022-09-18T08:59:43.631Z,10.76
2022-09-18T09:02:32.648Z,10.84
2022-09-18T09:05:02.500Z,10.90
2022-09-18T09:07:56.611Z,10.96
2022-09-18T09:10:40.370Z,11.00
2022-09-18T09:13:19.540Z,11.00
2022-09-18T09:16:01.922Z,10.95
2022-09-18T09:19:13.740Z,10.88
2022-09-18T09:22:07.877Z,10.83
2022-09-18T09:24:42.406Z,10.85
2022-09-18T09:27:35.077Z,10.92
2022-09-18T09:30:17.779Z,11.01
2022-09-18T09:32:56.128Z,11.06
2022-09-18T09:35:31.004Z,11.04
2022-09-18T09:38:05.343Z,11.03
2022-09-18T09:40:51.440Z,11.07
2022-09-18T09:43:26.704Z,11.09
2022-09-18T09:45:59.033Z,11.15
2022-09-18T09:48:51.995Z,11.13
2022-09-18T09:51:34.114Z,11.12
2022-09-18T09:54:02.280Z,11.06
2022-09-18T09:56:54.202Z,11.00
2022-09-18T09:59:26.325Z,11.01
2022-09-18T10:02:11.450Z,11.05
2022-09-18T10:05:32.457Z,11.12
2022-09-18T10:08:24.342Z,11.19
2022-09-18T10:10:58.349Z,11.12
2022-09-18T10:13:36.650Z,11.13
2022-09-18T10:16:21.679Z,11.15
2022-09-18T10:18:52.068Z,11.23
2022-09-18T10:21:27.201Z,11.26
2022-09-18T10:23:57.516Z,11.22
2022-09-18T10:26:31.342Z,11.20
2022-09-18T10:28:59.161Z,11.20
2022-09-18T10:31:49.699Z,11.23
2022-09-18T10:34:46.285Z,11.27
2022-09-18T10:37:28.387Z,11.31
2022-09-18T10:40:01.669Z,11.31
2022-09-18T10:42:31.911Z,11.37
2022-09-18T10:45:06.025Z,11.35
2022-09-18T10:47:35.729Z,11.35
2022-09-18T10:50:11.555Z,11.38
2022-09-18T10:52:46.637Z,11.39
2022-09-18T10:55:16.235Z,11.35
2022-09-18T10:57:44.469Z,11.33
2022-09-18T11:00:35.254Z,11.18
2022-09-18T11:03:18.219Z,10.95
2022-09-18T11:06:16.957Z,10.95
2022-09-18T11:08:51.999Z,11.01
2022-09-18T11:11:37.888Z,11.03
2022-09-18T11:14:16.195Z,11.02
2022-09-18T11:16:45.720Z,11.15
2022-09-18T11:19:15.343Z,11.29
2022-09-18T11:21:55.292Z,11.42
2022-09-18T11:24:36.729Z,11.61
2022-09-18T11:27:22.766Z,11.72
2022-09-18T11:29:49.709Z,11.79
2022-09-18T11:32:20.715Z,11.92
2022-09-18T11:34:51.294Z,12.03
2022-09-18T11:37:38.127Z,12.22
2022-09-18T11:40:24.495Z,12.28
2022-09-18T11:42:54.198Z,12.39
2022-09-18T11:45:48.932Z,12.54
2022-09-18T11:48:35.686Z,12.60
2022-09-18T11:51:20.647Z,12.56
2022-09-18T11:53:55.423Z,12.60
2022-09-18T11:56:47.682Z,12.62
2022-09-18T11:59:14.215Z,12.58
2022-09-18T12:02:05.516Z,12.61
2022-09-18T12:04:52.527Z,12.68
2022-09-18T12:07:38.511Z,12.68
2022-09-18T12:10:23.826Z,12.74
2022-09-18T12:12:59.334Z,12.79
2022-09-18T12:15:33.788Z,12.79
2022-09-18T12:18:08.761Z,12.80
2022-09-18T12:20:44.605Z,12.88
2022-09-18T12:23:23.013Z,12.93
2022-09-18T12:26:04.506Z,12.86
2022-09-18T12:29:01.738Z,12.91
2022-09-18T12:31:45.529Z,12.95
2022-09-18T12:34:17.474Z,13.03
2022-09-18T12:36:54.099Z,13.16
2022-09-18T12:39:50.320Z,13.23
2022-09-18T12:42:42.747Z,13.25
2022-09-18T12:45:30.746Z,13.30
2022-09-18T12:48:09.260Z,13.39
2022-09-18T12:51:07.127Z,13.49
2022-09-18T12:54:06.743Z,13.50
2022-09-18T12:57:17.900Z,13.52
2022-09-18T13:00:09.076Z,13.62
2022-09-18T13:02:50.459Z,13.63
2022-09-18T13:05:30.199Z,13.62
2022-09-18T13:08:20.044Z,13.71
2022-09-18T13:10:49.234Z,13.72
2022-09-18T13:13:24.569Z,13.67
2022-09-18T13:16:02.486Z,13.60
2022-09-18T13:18:29.903Z,13.33
2022-09-18T13:20:58.720Z,12.93
2022-09-18T13:23:33.436Z,12.64
2022-09-18T13:26:01.885Z,12.48
2022-09-18T13:28:29.244Z,12.25
2022-09-18T13:31:14.317Z,12.17
2022-09-18T13:34:09.956Z,12.10
2022-09-18T13:36:38.626Z,11.93
2022-09-18T13:39:18.943Z,12.02
2022-09-18T13:41:49.394Z,12.03
2022-09-18T13:44:20.905Z,12.03
2022-09-18T13:46:49.041Z,12.05
2022-09-18T13:49:24.866Z,12.07
2022-09-18T13:51:51.510Z,12.02
2022-09-18T13:54:21.739Z,12.04
2022-09-18T13:57:04.642Z,12.06
2022-09-18T13:59:56.214Z,12.06
2022-09-18T14:02:27.960Z,12.06
2022-09-18T14:05:23.939Z,12.01
2022-09-18T14:08:04.756Z,11.91
2022-09-18T14:10:38.437Z,11.75
2022-09-18T14:13:31.094Z,11.60
2022-09-18T14:16:06.007Z,11.55
2022-09-18T14:18:32.662Z,11.59
2022-09-18T14:21:14.561Z,11.67
2022-09-18T14:23:47.483Z,11.69
2022-09-18T14:26:37.195Z,11.55
2022-09-18T14:29:14.835Z,11.54
2022-09-18T14:31:41.429Z,11.59
2022-09-18T14:34:17.737Z,11.62
2022-09-18T14:36:55.170Z,11.64
2022-09-18T14:39:27.267Z,11.68
2022-09-18T14:41:57.519Z,11.64
2022-09-18T14:44:24.655Z,11.62
2022-09-18T14:46:57.093Z,11.52
2022-09-18T14:49:52.790Z,11.42
2022-09-18T14:52:21.514Z,11.50
2022-09-18T14:54:50.594Z,11.34
2022-09-18T14:57:19.489Z,11.29
2022-09-18T14:59:54.388Z,11.34
2022-09-18T15:02:34.156Z,11.38
2022-09-18T15:05:03.699Z,11.41
2022-09-18T15:07:30.657Z,11.41
2022-09-18T15:10:01.436Z,11.41
2022-09-18T15:12:30.917Z,11.37
2022-09-18T15:14:59.040Z,11.40
2022-09-18T15:17:27.953Z,11.37
2022-09-18T15:19:59.034Z,11.29
2022-09-18T15:22:26.786Z,11.14
2022-09-18T15:24:54.107Z,11.11
2022-09-18T15:27:22.339Z,11.08
2022-09-18T15:30:00.883Z,11.01
2022-09-18T15:32:35.287Z,11.04
2022-09-18T15:35:05.319Z,11.09
2022-09-18T15:37:32.738Z,11.12
2022-09-18T15:40:03.779Z,11.04
2022-09-18T15:42:35.469Z,10.83
2022-09-18T15:45:02.030Z,10.77
2022-09-18T15:47:28.575Z,10.72
2022-09-18T15:49:55.939Z,10.61
2022-09-18T15:52:49.054Z,10.64
2022-09-18T15:55:23.379Z,10.73
2022-09-18T15:57:54.108Z,10.62
2022-09-18T16:00:24.461Z,10.63
2022-09-18T16:02:58.030Z,10.72
2022-09-18T16:05:26.574Z,10.78
2022-09-18T16:07:57.887Z,10.73
2022-09-18T16:10:42.604Z,10.75
2022-09-18T16:13:15.276Z,10.81
2022-09-18T16:15:47.660Z,10.84
2022-09-18T16:18:25.590Z,10.88
2022-09-18T16:20:53.784Z,10.90
2022-09-18T16:23:29.392Z,10.92
2022-09-18T16:26:20.563Z,10.91
2022-09-18T16:28:50.218Z,10.83
2022-09-18T16:31:19.891Z,10.74
2022-09-18T16:34:21.799Z,10.55
2022-09-18T16:36:49.121Z,10.39
2022-09-18T16:39:20.984Z,10.20
2022-09-18T16:41:48.554Z,10.09
2022-09-18T16:44:17.066Z,10.12
2022-09-18T16:46:53.932Z,10.05
2022-09-18T16:49:25.313Z,10.07
2022-09-18T16:51:55.091Z,10.00
2022-09-18T16:54:21.701Z,10.01
2022-09-18T16:56:52.044Z,10.01
2022-09-18T16:59:25.248Z,10.11
2022-09-18T17:02:03.815Z,10.07
2022-09-18T17:04:31.157Z,9.97
2022-09-18T17:06:57.936Z,9.95
2022-09-18T17:09:25.031Z,9.95
2022-09-18T17:11:52.902Z,10.01
2022-09-18T17:14:20.427Z,10.00
2022-09-18T17:16:47.070Z,10.03
2022-09-18T17:19:13.870Z,10.07
2022-09-18T17:21:41.639Z,10.03
2022-09-18T17:24:09.366Z,10.01
2022-09-18T17:26:37.574Z,10.00
2022-09-18T17:29:04.244Z,10.01
2022-09-18T17:31:30.857Z,10.02
2022-09-18T17:33:57.663Z,9.99
2022-09-18T17:36:24.499Z,9.93
2022-09-18T17:38:51.057Z,9.94
2022-09-18T17:41:19.398Z,9.89
2022-09-18T17:43:51.820Z,9.91
2022-09-18T17:46:18.766Z,9.91
2022-09-18T17:48:45.526Z,9.76
2022-09-18T17:51:15.709Z,9.84
2022-09-18T17:53:43.683Z,9.86
2022-09-18T17:56:12.753Z,9.84
2022-09-18T17:58:41.356Z,9.77
2022-09-18T18:01:11.207Z,9.78
2022-09-18T18:03:39.278Z,9.71
2022-09-18T18:06:07.037Z,9.68
2022-09-18T18:08:34.026Z,9.71
2022-09-18T18:11:07.575Z,9.69
2022-09-18T18:13:39.755Z,9.68
2022-09-18T18:16:14.386Z,9.64
2022-09-18T18:18:43.055Z,9.71
2022-09-18T18:21:10.947Z,9.70
2022-09-18T18:23:40.906Z,9.70
2022-09-18T18:26:09.684Z,9.73
2022-09-18T18:28:38.180Z,9.69
2022-09-18T18:31:08.349Z,9.65
2022-09-18T18:33:36.250Z,9.68
2022-09-18T18:36:13.256Z,9.70
2022-09-18T18:38:41.638Z,9.73
2022-09-18T18:41:09.544Z,9.81
2022-09-18T18:43:38.010Z,9.74
2022-09-18T18:46:08.122Z,9.70
2022-09-18T18:48:36.871Z,9.66
2022-09-18T18:51:08.836Z,9.60
2022-09-18T18:53:38.643Z,9.56
2022-09-18T18:56:10.735Z,9.51
2022-09-18T18:58:37.502Z,9.52
2022-09-18T19:01:14.731Z,9.51
2022-09-18T19:03:44.229Z,9.57
2022-09-18T19:06:11.670Z,9.54
2022-09-18T19:08:38.496Z,9.51
2022-09-18T19:11:06.740Z,9.50
2022-09-18T19:13:41.264Z,9.41
2022-09-18T19:16:08.208Z,9.42
2022-09-18T19:18:35.530Z,9.45
2022-09-18T19:21:02.209Z,9.43
2022-09-18T19:23:29.175Z,9.42
2022-09-18T19:25:57.248Z,9.38
2022-09-18T19:28:24.434Z,9.36
2022-09-18T19:30:53.687Z,9.36
2022-09-18T19:33:23.653Z,9.32
2022-09-18T19:35:50.696Z,9.29
2022-09-18T19:38:19.685Z,9.24
2022-09-18T19:40:51.238Z,9.18
2022-09-18T19:43:37.291Z,9.14
2022-09-18T19:46:06.798Z,9.16
2022-09-18T19:48:34.018Z,9.15
2022-09-18T19:51:00.992Z,9.01
2022-09-18T19:53:27.878Z,8.90
2022-09-18T19:55:55.452Z,8.85
2022-09-18T19:58:22.238Z,8.84
2022-09-18T20:00:50.612Z,8.81
2022-09-18T20:03:17.323Z,8.87
2022-09-18T20:05:44.291Z,8.92
2022-09-18T20:08:11.177Z,8.86
2022-09-18T20:10:40.209Z,8.83
2022-09-18T20:13:08.336Z,8.76
2022-09-18T20:15:34.897Z,8.76
2022-09-18T20:18:01.539Z,8.77
2022-09-18T20:20:28.560Z,8.71
2022-09-18T20:22:55.430Z,8.62
2022-09-18T20:25:22.646Z,8.50
2022-09-18T20:27:49.206Z,8.52
2022-09-18T20:30:15.920Z,8.61
2022-09-18T20:32:42.462Z,8.60
2022-09-18T20:35:09.972Z,8.57
2022-09-18T20:37:36.494Z,8.51
2022-09-18T20:40:05.259Z,8.46
2022-09-18T20:42:33.396Z,8.46
2022-09-18T20:45:03.499Z,8.36
2022-09-18T20:47:35.185Z,8.32
2022-09-18T20:50:06.679Z,8.43
2022-09-18T20:52:38.336Z,8.51
2022-09-18T20:55:11.296Z,8.63
2022-09-18T20:57:38.669Z,8.67
2022-09-18T21:00:07.525Z,8.64
2022-09-18T21:02:35.436Z,8.61
2022-09-18T21:05:10.610Z,8.67
2022-09-18T21:07:37.384Z,8.69
2022-09-18T21:10:04.186Z,8.71
2022-09-18T21:12:32.626Z,8.61
2022-09-18T21:15:02.243Z,8.63
2022-09-18T21:17:30.516Z,8.64
2022-09-18T21:19:57.456Z,8.65
2022-09-18T21:22:24.186Z,8.62
2022-09-18T21:24:50.713Z,8.44
2022-09-18T21:27:17.206Z,8.41
2022-09-18T21:29:43.731Z,8.40
2022-09-18T21:32:12.091Z,8.16
2022-09-18T21:34:38.608Z,8.17
2022-09-18T21:37:11.120Z,8.23
2022-09-18T21:39:39.014Z,8.18
2022-09-18T21:42:07.367Z,8.13
2022-09-18T21:44:37.880Z,8.03
2022-09-18T21:47:07.404Z,8.00
2022-09-18T21:49:34.328Z,7.99
2022-09-18T21:52:08.012Z,7.98
2022-09-18T21:54:35.363Z,7.95
2022-09-18T21:57:02.300Z,7.92
2022-09-18T21:59:31.132Z,7.89
2022-09-18T22:01:58.461Z,7.85
2022-09-18T22:04:27.470Z,7.84
2022-09-18T22:06:57.076Z,7.78
2022-09-18T22:09:36.608Z,7.73
2022-09-18T22:12:03.506Z,7.67
2022-09-18T22:14:32.536Z,7.61
2022-09-18T22:17:05.072Z,7.60
2022-09-18T22:19:33.374Z,7.58
2022-09-18T22:22:01.410Z,7.53
2022-09-18T22:24:29.098Z,7.50
2022-09-18T22:27:00.518Z,7.47
2022-09-18T22:29:32.562Z,7.42
2022-09-18T22:31:59.668Z,7.42
2022-09-18T22:34:28.783Z,7.37
2022-09-18T22:36:55.942Z,7.36
2022-09-18T22:39:23.108Z,7.31
2022-09-18T22:41:53.751Z,7.27
2022-09-18T22:44:23.711Z,7.26
2022-09-18T22:46:52.444Z,7.19
2022-09-18T22:49:20.888Z,7.10
2022-09-18T22:51:47.534Z,7.07
2022-09-18T22:54:16.759Z,7.03
2022-09-18T22:56:45.792Z,6.95
2022-09-18T22:59:13.137Z,6.94
2022-09-18T23:01:46.347Z,6.98
2022-09-18T23:04:13.655Z,6.99
2022-09-18T23:06:40.406Z,6.88
2022-09-18T23:09:07.586Z,6.74
2022-09-18T23:11:34.726Z,6.73
2022-09-18T23:14:04.435Z,6.79
2022-09-18T23:16:32.576Z,6.80
2022-09-18T23:19:02.044Z,6.79
2022-09-18T23:21:32.039Z,6.81
2022-09-18T23:24:00.651Z,6.79
2022-09-18T23:26:33.076Z,6.72
2022-09-18T23:29:01.586Z,6.64
2022-09-18T23:31:32.992Z,6.60
2022-09-18T23:34:02.353Z,6.61
2022-09-18T23:36:31.677Z,6.58
2022-09-18T23:39:00.749Z,6.57
2022-09-18T23:41:35.110Z,6.51
2022-09-18T23:44:02.857Z,6.47
2022-09-18T23:46:29.553Z,6.43
2022-09-18T23:48:56.157Z,6.44
2022-09-18T23:51:24.734Z,6.34
2022-09-18T23:53:52.072Z,6.36
2022-09-18T23:56:18.944Z,6.39
2022-09-18T23:58:45.899Z,6.37
